Time;durP1;ratioP1;P1;durP2;ratioP2;P2;SDS_P1;SDS_P2;PMS_P1;PMS_P2;Temp;Humidity;BMP_temperature;BMP_pressure;BME280_temperature;BME280_humidity;BME280_pressure;Samples;Min_cycle;Max_cycle;Signal;HPM_P1;HPM_P2
2023/09/16 00:00:50;;;;;;;6.33;4.20;;;;;;;16.65;100.00;100350.78;4973819;28;20278;-69
2023/09/16 00:03:16;;;;;;;5.97;4.70;;;;;;;16.56;100.00;100357.13;4971887;28;20300;-69
2023/09/16 00:05:43;;;;;;;7.13;4.40;;;;;;;16.42;100.00;100354.59;4973770;28;20639;-69
2023/09/16 00:08:09;;;;;;;5.67;4.33;;;;;;;16.31;100.00;100353.81;4967626;28;20212;-68
2023/09/16 00:10:35;;;;;;;5.37;4.17;;;;;;;16.31;100.00;100353.81;4967226;28;20206;-69
2023/09/16 00:13:02;;;;;;;5.97;3.93;;;;;;;16.29;100.00;100343.13;4968975;28;20224;-68
2023/09/16 00:15:29;;;;;;;4.97;4.17;;;;;;;16.40;100.00;100339.47;4972934;28;20288;-69
2023/09/16 00:17:55;;;;;;;4.53;3.60;;;;;;;16.51;100.00;100346.47;4966898;28;20685;-69
2023/09/16 00:20:25;;;;;;;5.63;3.80;;;;;;;16.48;100.00;100335.81;4969724;28;20658;-69
2023/09/16 00:22:51;;;;;;;6.17;4.00;;;;;;;16.47;100.00;100335.84;4970856;28;20218;-68
2023/09/16 00:25:18;;;;;;;4.80;3.87;;;;;;;16.43;100.00;100340.34;4966181;28;20225;-69
2023/09/16 00:27:44;;;;;;;6.33;4.60;;;;;;;16.47;100.00;100341.19;4968821;28;20229;-69
2023/09/16 00:30:11;;;;;;;6.10;4.03;;;;;;;16.45;100.00;100337.66;4967574;28;20288;-68
2023/09/16 00:32:38;;;;;;;4.97;3.73;;;;;;;16.46;100.00;100334.06;4971239;28;20209;-69
2023/09/16 00:35:04;;;;;;;5.20;4.10;;;;;;;16.67;100.00;100327.59;4975679;28;20221;-69
2023/09/16 00:37:31;;;;;;;4.97;3.83;;;;;;;16.64;100.00;100319.59;4965672;28;20255;-69
2023/09/16 00:39:58;;;;;;;4.37;3.87;;;;;;;16.54;100.00;100319.72;4967956;28;20209;-69
2023/09/16 00:42:24;;;;;;;4.63;3.30;;;;;;;16.47;100.00;100327.81;4968022;28;20209;-68
2023/09/16 00:44:51;;;;;;;4.70;3.90;;;;;;;16.40;100.00;100320.75;4972151;28;20312;-70
2023/09/16 00:47:17;;;;;;;4.53;3.60;;;;;;;16.41;100.00;100327.84;4970716;28;20207;-68
2023/09/16 00:49:44;;;;;;;5.73;3.63;;;;;;;16.36;100.00;100322.56;4973091;28;20196;-69
2023/09/16 00:52:10;;;;;;;4.67;3.60;;;;;;;16.35;100.00;100328.81;4967188;28;20300;-69
2023/09/16 00:54:38;;;;;;;5.03;3.73;;;;;;;16.39;100.00;100337.69;4966956;28;20308;-69
2023/09/16 00:57:09;;;;;;;8.57;3.80;;;;;;;16.40;100.00;100339.47;4968450;28;20256;-68
2023/09/16 00:59:35;;;;;;;4.70;3.70;;;;;;;16.38;100.00;100333.25;4968662;28;20288;-69
2023/09/16 01:02:03;;;;;;;5.60;4.13;;;;;;;16.24;100.00;100326.28;4963524;28;20231;-68
2023/09/16 01:04:30;;;;;;;6.40;3.77;;;;;;;16.20;100.00;100329.00;4970325;28;20749;-68
2023/09/16 01:06:57;;;;;;;4.67;3.67;;;;;;;16.13;100.00;100330.84;4966306;28;20233;-68
2023/09/16 01:09:24;;;;;;;5.70;3.97;;;;;;;16.03;100.00;100321.16;4967891;28;20682;-69
2023/09/16 01:11:50;;;;;;;5.40;3.90;;;;;;;15.99;100.00;100314.06;4961872;28;20658;-69
2023/09/16 01:14:17;;;;;;;5.07;3.67;;;;;;;16.04;100.00;100322.06;4965510;28;20218;-68
2023/09/16 01:16:52;;;;;;;8.60;3.50;;;;;;;16.10;100.00;100324.66;4968120;28;20205;-68
2023/09/16 01:19:35;;;;;;;4.10;3.60;;;;;;;16.16;100.00;100319.25;4969239;28;20682;-69
2023/09/16 01:22:02;;;;;;;3.73;3.30;;;;;;;16.11;100.00;100315.75;4969611;28;20231;-69
2023/09/16 01:24:28;;;;;;;5.93;3.60;;;;;;;16.08;100.00;100319.34;4965760;28;20237;-68
2023/09/16 01:26:55;;;;;;;5.53;3.70;;;;;;;16.06;100.00;100317.59;4982218;28;20252;-69
2023/09/16 01:29:22;;;;;;;4.30;3.70;;;;;;;16.04;100.00;100322.06;4966581;28;20693;-68
2023/09/16 01:31:49;;;;;;;5.53;3.70;;;;;;;15.99;100.00;100317.63;4967889;28;20617;-68
2023/09/16 01:34:22;;;;;;;4.70;3.63;;;;;;;15.85;100.00;100310.63;4965921;28;20228;-68
2023/09/16 01:36:52;;;;;;;6.23;4.10;;;;;;;15.77;100.00;100316.06;4968309;28;20209;-69
2023/09/16 01:39:21;;;;;;;5.00;3.77;;;;;;;15.68;100.00;100316.16;4967759;28;20293;-69
2023/09/16 01:41:51;;;;;;;5.33;4.10;;;;;;;15.62;100.00;100317.09;4966006;28;20206;-69
2023/09/16 01:44:17;;;;;;;6.20;3.80;;;;;;;15.53;100.00;100321.56;4968259;28;20232;-71
2023/09/16 01:46:44;;;;;;;4.93;3.80;;;;;;;15.44;100.00;100319.84;4968009;28;20307;-70
2023/09/16 01:49:10;;;;;;;5.50;4.17;;;;;;;15.35;100.00;100322.59;4970622;28;20658;-70
2023/09/16 01:51:37;;;;;;;5.07;4.10;;;;;;;15.26;100.00;100330.66;4966433;28;20212;-71
2023/09/16 01:54:03;;;;;;;5.80;4.10;;;;;;;15.21;100.00;100316.44;4963493;28;20194;-70
2023/09/16 01:56:30;;;;;;;5.27;4.00;;;;;;;15.15;100.00;100321.81;4965123;28;20677;-71
2023/09/16 01:58:56;;;;;;;4.80;4.10;;;;;;;15.14;100.00;100323.59;4969750;28;20252;-73
2023/09/16 02:01:23;;;;;;;5.60;4.33;;;;;;;14.99;100.00;100326.38;4971156;28;20308;-72
2023/09/16 02:03:49;;;;;;;5.00;4.17;;;;;;;14.93;100.00;100329.97;4986721;28;20226;-70
2023/09/16 02:06:16;;;;;;;5.30;4.10;;;;;;;14.84;100.00;100330.03;4969860;28;20206;-70
2023/09/16 02:08:42;;;;;;;6.20;4.33;;;;;;;14.92;100.00;100328.19;4973006;28;20240;-70
2023/09/16 02:11:08;;;;;;;6.43;4.47;;;;;;;15.00;100.00;100329.03;4968787;28;20697;-71
2023/09/16 02:13:38;;;;;;;6.00;4.60;;;;;;;14.87;100.00;100329.13;4988104;28;20202;-70
2023/09/16 02:16:04;;;;;;;6.50;4.43;;;;;;;14.79;100.00;100331.78;4984490;28;20244;-70
2023/09/16 02:18:31;;;;;;;5.50;4.30;;;;;;;14.66;100.00;100330.97;4970039;28;20666;-71
2023/09/16 02:20:57;;;;;;;6.30;4.27;;;;;;;14.59;100.00;100331.91;4966497;28;20255;-71
2023/09/16 02:23:24;;;;;;;8.03;4.63;;;;;;;14.52;100.00;100332.81;4970681;28;20225;-71
2023/09/16 02:25:50;;;;;;;7.03;4.80;;;;;;;14.55;100.00;100330.13;4973350;28;20229;-72
2023/09/16 02:28:19;;;;;;;5.27;4.40;;;;;;;14.65;100.00;100338.97;4973684;28;20205;-70
2023/09/16 02:30:48;;;;;;;5.87;4.17;;;;;;;14.60;100.00;100335.44;4973533;28;20209;-71
2023/09/16 02:33:17;;;;;;;7.33;4.10;;;;;;;14.51;100.00;100343.47;4972663;28;20198;-70
2023/09/16 02:35:43;;;;;;;6.67;4.40;;;;;;;14.47;100.00;100342.63;4973200;28;20225;-73
2023/09/16 02:38:09;;;;;;;5.53;4.50;;;;;;;14.57;100.00;100338.13;4968002;28;20214;-70
2023/09/16 02:40:40;;;;;;;6.03;4.47;;;;;;;14.58;100.00;100343.44;4972646;28;20209;-70
2023/09/16 02:43:07;;;;;;;6.23;4.87;;;;;;;14.51;100.00;100340.81;4974412;28;20816;-70
2023/09/16 02:45:43;;;;;;;5.97;4.20;;;;;;;14.42;100.00;100341.72;4968985;28;20229;-73
2023/09/16 02:48:10;;;;;;;5.23;4.27;;;;;;;14.38;100.00;100343.47;4968653;28;20205;-71
2023/09/16 02:50:38;;;;;;;7.30;4.30;;;;;;;14.34;100.00;100343.47;4973726;28;20218;-70
2023/09/16 02:53:05;;;;;;;5.03;4.27;;;;;;;14.26;100.00;100343.50;4969766;28;20506;-70
2023/09/16 02:55:32;;;;;;;6.07;4.40;;;;;;;14.24;100.00;100345.28;4973166;28;20826;-71
2023/09/16 02:58:02;;;;;;;5.33;4.23;;;;;;;14.22;100.00;100351.50;4969979;28;20201;-70
2023/09/16 03:00:29;;;;;;;5.77;4.50;;;;;;;14.14;100.00;100345.31;4973621;28;20201;-71
2023/09/16 03:02:56;;;;;;;5.57;4.17;;;;;;;14.07;100.00;100341.78;4975729;28;20209;-71
2023/09/16 03:05:23;;;;;;;6.23;4.30;;;;;;;14.00;100.00;100346.19;4971220;28;20728;-71
2023/09/16 03:07:49;;;;;;;6.97;4.70;;;;;;;14.05;100.00;100341.78;4968870;28;20198;-71
2023/09/16 03:10:15;;;;;;;6.93;4.80;;;;;;;14.14;100.00;100342.66;4969290;28;20197;-70
2023/09/16 03:12:42;;;;;;;6.67;4.30;;;;;;;14.09;100.00;100330.25;4973695;28;20753;-72
2023/09/16 03:15:10;;;;;;;6.67;4.53;;;;;;;14.13;100.00;100319.56;4973894;28;20220;-70
2023/09/16 03:17:36;;;;;;;7.17;4.67;;;;;;;14.10;100.00;100325.78;4968080;28;20651;-71
2023/09/16 03:20:03;;;;;;;6.27;4.40;;;;;;;14.04;100.00;100324.03;4969917;28;20194;-70
2023/09/16 03:22:31;;;;;;;6.43;4.37;;;;;;;14.06;100.00;100330.25;4973757;28;20212;-70
2023/09/16 03:24:57;;;;;;;7.77;4.60;;;;;;;14.03;100.00;100319.59;4969513;28;20232;-71
2023/09/16 03:27:24;;;;;;;5.97;4.87;;;;;;;14.03;100.00;100324.03;4979222;28;20677;-70
2023/09/16 03:29:50;;;;;;;6.57;4.50;;;;;;;13.94;100.00;100316.94;4975043;28;20509;-71
2023/09/16 03:32:16;;;;;;;7.10;5.03;;;;;;;13.85;100.00;100316.94;4970988;28;20198;-71
2023/09/16 03:34:43;;;;;;;6.20;4.33;;;;;;;13.82;100.00;100322.28;4971857;28;20643;-72
2023/09/16 03:37:09;;;;;;;5.77;4.30;;;;;;;13.75;100.00;100325.84;4974051;28;20234;-70
2023/09/16 03:39:36;;;;;;;6.07;4.53;;;;;;;13.72;100.00;100323.19;4966513;28;20292;-71
2023/09/16 03:42:02;;;;;;;7.57;4.70;;;;;;;13.68;100.00;100316.97;4964867;28;20505;-71
2023/09/16 03:44:29;;;;;;;6.73;4.60;;;;;;;13.65;100.00;100316.09;4969342;28;20217;-72
2023/09/16 03:46:55;;;;;;;5.83;4.33;;;;;;;13.59;100.00;100318.72;4971794;28;20554;-70
2023/09/16 03:49:22;;;;;;;5.77;4.50;;;;;;;13.62;100.00;100313.44;4970791;28;20198;-72
2023/09/16 03:51:48;;;;;;;5.87;4.70;;;;;;;13.69;100.00;100315.19;4972660;28;20194;-70
2023/09/16 03:54:15;;;;;;;5.30;4.40;;;;;;;13.67;100.00;100311.66;4969265;28;20214;-71
2023/09/16 03:56:41;;;;;;;5.37;4.30;;;;;;;13.79;100.00;100317.84;4974773;28;20194;-73
2023/09/16 03:59:07;;;;;;;8.10;4.90;;;;;;;13.85;100.00;100321.38;4972535;28;20665;-71
2023/09/16 04:01:34;;;;;;;6.53;4.80;;;;;;;13.88;100.00;100318.72;4971761;28;20201;-71
2023/09/16 04:04:00;;;;;;;6.00;4.80;;;;;;;13.92;100.00;100312.50;4975777;28;20713;-71
2023/09/16 04:06:27;;;;;;;7.03;4.70;;;;;;;13.86;100.00;100321.38;4979413;28;20244;-72
2023/09/16 04:08:53;;;;;;;7.03;4.97;;;;;;;13.86;100.00;100317.84;4974341;28;20700;-72
2023/09/16 04:11:20;;;;;;;7.10;4.47;;;;;;;13.91;100.00;100316.03;4971699;28;20201;-72
2023/09/16 04:13:46;;;;;;;7.40;4.93;;;;;;;13.82;100.00;100316.94;4970291;28;20224;-70
2023/09/16 04:16:13;;;;;;;6.77;4.60;;;;;;;13.77;100.00;100316.97;4977916;28;20192;-73
2023/09/16 04:18:40;;;;;;;6.33;4.83;;;;;;;13.65;100.00;100316.09;4973872;28;20197;-71
2023/09/16 04:21:06;;;;;;;6.30;4.50;;;;;;;13.60;100.00;100318.72;4968979;28;20202;-70
2023/09/16 04:23:35;;;;;;;6.73;4.77;;;;;;;13.70;100.00;100323.19;4981704;28;20221;-72
2023/09/16 04:26:01;;;;;;;6.40;4.83;;;;;;;13.61;100.00;100311.63;4967276;28;20232;-73
2023/09/16 04:28:28;;;;;;;6.63;5.20;;;;;;;13.69;100.00;100321.41;4969185;28;20220;-71
2023/09/16 04:30:56;;;;;;;6.73;4.83;;;;;;;13.64;100.00;100312.53;4967108;28;20198;-70
2023/09/16 04:33:22;;;;;;;8.70;4.90;;;;;;;13.63;100.00;100316.09;4972299;28;20812;-70
2023/09/16 04:35:50;;;;;;;7.13;4.43;;;;;;;13.68;100.00;100316.09;4968560;28;20214;-73
2023/09/16 04:38:18;;;;;;;5.90;4.63;;;;;;;13.70;100.00;100312.53;4971179;28;20206;-73
2023/09/16 04:40:45;;;;;;;5.70;4.77;;;;;;;13.73;100.00;100315.19;4964654;28;20641;-73
2023/09/16 04:43:14;;;;;;;6.43;4.53;;;;;;;13.73;100.00;100309.88;4965545;28;20295;-71
2023/09/16 04:45:44;;;;;;;8.17;4.80;;;;;;;13.72;100.00;100308.09;4967464;28;20248;-72
2023/09/16 04:48:15;;;;;;;6.23;4.57;;;;;;;13.73;100.00;100309.88;4969057;28;20198;-70
2023/09/16 04:50:43;;;;;;;8.63;5.00;;;;;;;13.64;100.00;100309.00;4968309;28;20205;-72
2023/09/16 04:53:10;;;;;;;6.63;5.43;;;;;;;13.70;100.00;100304.56;4966226;28;20197;-71
2023/09/16 04:55:37;;;;;;;5.87;4.73;;;;;;;13.70;100.00;100301.00;4969760;28;20606;-71
2023/09/16 04:58:03;;;;;;;6.87;4.43;;;;;;;13.63;100.00;100305.44;4970694;28;20212;-73
2023/09/16 05:00:33;;;;;;;5.90;4.50;;;;;;;13.57;100.00;100293.88;4966686;28;20197;-71
2023/09/16 05:03:00;;;;;;;8.40;4.60;;;;;;;13.45;100.00;100302.78;4970866;28;20613;-72
2023/09/16 05:05:27;;;;;;;7.83;4.43;;;;;;;13.38;100.00;100299.22;4971289;28;20225;-72
2023/09/16 05:07:53;;;;;;;11.77;4.93;;;;;;;13.35;100.00;100298.34;4969658;28;20962;-72
2023/09/16 05:10:19;;;;;;;5.80;4.67;;;;;;;13.36;100.00;100295.69;4973210;28;20193;-72
2023/09/16 05:12:46;;;;;;;6.67;4.80;;;;;;;13.37;100.00;100292.13;4966997;28;20193;-72
2023/09/16 05:15:12;;;;;;;7.70;4.63;;;;;;;13.36;100.00;100298.34;4969454;28;20220;-71
2023/09/16 05:17:40;;;;;;;7.90;4.27;;;;;;;13.34;100.00;100293.91;4966900;28;20212;-72
2023/09/16 05:20:07;;;;;;;8.43;5.07;;;;;;;13.42;100.00;100289.47;4965527;28;20197;-73
2023/09/16 05:22:34;;;;;;;6.30;4.80;;;;;;;13.41;100.00;100296.56;4968160;28;20201;-71
2023/09/16 05:25:03;;;;;;;7.43;4.80;;;;;;;13.49;100.00;100294.78;4981623;28;20397;-72
2023/09/16 05:27:30;;;;;;;6.23;4.80;;;;;;;13.54;100.00;100289.47;4986505;28;20203;-73
2023/09/16 05:29:56;;;;;;;7.37;5.17;;;;;;;13.62;100.00;100297.47;4974245;28;20194;-71
2023/09/16 05:32:23;;;;;;;7.77;5.20;;;;;;;13.59;100.00;100295.66;4968216;28;20204;-70
2023/09/16 05:34:49;;;;;;;6.80;4.83;;;;;;;13.61;100.00;100300.97;4971172;28;20244;-71
2023/09/16 05:37:15;;;;;;;7.33;5.33;;;;;;;13.61;100.00;100307.22;4969108;28;20221;-73
2023/09/16 05:39:42;;;;;;;7.27;5.30;;;;;;;13.72;100.00;100307.22;4968815;28;20300;-71
2023/09/16 05:42:08;;;;;;;7.33;5.20;;;;;;;13.81;100.00;100307.19;4967739;28;20284;-70
2023/09/16 05:44:35;;;;;;;6.13;4.90;;;;;;;13.87;100.00;100300.97;4970006;28;20332;-72
2023/09/16 05:47:01;;;;;;;7.23;4.80;;;;;;;13.87;100.00;100299.19;4969056;28;20193;-71
2023/09/16 05:49:28;;;;;;;6.80;4.70;;;;;;;13.93;100.00;100301.84;4969742;28;20198;-75
2023/09/16 05:51:55;;;;;;;6.53;4.53;;;;;;;13.96;100.00;100301.84;4970136;28;20198;-71
2023/09/16 05:54:22;;;;;;;7.07;4.60;;;;;;;14.05;100.00;100300.97;4971319;28;20214;-69
2023/09/16 05:56:49;;;;;;;8.00;4.83;;;;;;;14.21;100.00;100307.13;4971343;28;20292;-71
2023/09/16 05:59:15;;;;;;;5.90;4.43;;;;;;;14.30;100.00;100302.66;4969633;28;20269;-72
2023/09/16 06:01:42;;;;;;;7.03;4.80;;;;;;;14.37;100.00;100306.16;4968204;28;20229;-71
2023/09/16 06:04:08;;;;;;;7.67;4.83;;;;;;;14.46;100.00;100308.88;4969638;28;20230;-72
2023/09/16 06:06:36;;;;;;;7.17;4.63;;;;;;;14.54;100.00;100303.50;4968393;28;20205;-71
2023/09/16 06:09:05;;;;;;;5.47;4.50;;;;;;;14.62;100.00;100315.88;4969696;28;20197;-70
2023/09/16 06:11:31;;;;;;;5.57;4.00;;;;;;;14.66;100.00;100303.44;4967987;28;20198;-72
2023/09/16 06:13:58;;;;;;;6.33;4.50;;;;;;;14.73;100.00;100307.84;4968489;28;20292;-71
2023/09/16 06:16:24;;;;;;;5.57;4.37;;;;;;;14.78;100.00;100307.81;4969036;28;20205;-71
2023/09/16 06:18:51;;;;;;;8.10;5.23;;;;;;;14.84;100.00;100308.69;4970355;28;20202;-70
2023/09/16 06:21:18;;;;;;;6.63;4.47;;;;;;;14.91;100.00;100307.75;4970930;28;20214;-72
2023/09/16 06:23:45;;;;;;;5.07;3.97;;;;;;;14.97;100.00;100315.72;4969780;28;20212;-70
2023/09/16 06:26:12;;;;;;;5.20;4.03;;;;;;;15.04;100.00;100319.22;4968675;28;20729;-70
2023/09/16 06:28:39;;;;;;;6.40;4.33;;;;;;;15.13;100.00;100323.63;4971518;28;20276;-71
2023/09/16 06:31:05;;;;;;;5.50;4.20;;;;;;;15.20;100.00;100325.34;4967744;28;20213;-70
2023/09/16 06:33:32;;;;;;;5.50;4.20;;;;;;;15.29;100.00;100312.84;4973845;28;20193;-70
2023/09/16 06:35:58;;;;;;;5.63;4.50;;;;;;;15.40;100.00;100314.56;4969510;28;20229;-70
2023/09/16 06:38:25;;;;;;;5.53;4.07;;;;;;;15.49;100.00;100314.47;4970676;28;20209;-71
2023/09/16 06:40:51;;;;;;;5.33;3.90;;;;;;;15.58;100.00;100319.75;4969967;28;20546;-70
2023/09/16 06:43:17;;;;;;;5.17;4.07;;;;;;;15.69;100.00;100315.25;4966710;28;21191;-68
2023/09/16 06:45:46;;;;;;;5.40;3.83;;;;;;;15.81;100.00;100317.81;4960853;28;20245;-69
2023/09/16 06:48:12;;;;;;;4.83;4.17;;;;;;;15.94;100.00;100314.09;4962799;28;20252;-69
2023/09/16 06:50:39;;;;;;;6.77;3.90;;;;;;;16.11;100.00;100316.63;4966745;28;20201;-68
2023/09/16 06:53:06;;;;;;;5.17;3.83;;;;;;;16.33;100.00;100313.72;4963143;28;20280;-71
2023/09/16 06:55:32;;;;;;;5.17;3.67;;;;;;;16.42;100.00;100313.63;4967147;28;20605;-69
2023/09/16 06:57:59;;;;;;;7.73;4.50;;;;;;;16.57;100.00;100314.31;4981021;28;20250;-69
2023/09/16 07:00:25;;;;;;;6.03;4.27;;;;;;;16.78;100.00;100314.97;4968373;28;20225;-70
2023/09/16 07:02:53;;;;;;;6.67;4.20;;;;;;;16.98;100.00;100314.72;4963322;28;20741;-69
2023/09/16 07:05:20;;;;;;;6.73;4.60;;;;;;;17.06;100.00;100311.03;4967812;28;20236;-68
2023/09/16 07:07:46;;;;;;;8.93;4.90;;;;;;;17.21;100.00;100301.88;4982232;28;20201;-69
2023/09/16 07:10:12;;;;;;;6.43;4.30;;;;;;;17.34;100.00;100307.94;4963466;28;20575;-71
2023/09/16 07:12:39;;;;;;;9.70;4.37;;;;;;;17.63;100.00;100310.16;4961812;28;20292;-68
2023/09/16 07:15:05;;;;;;;8.30;4.53;;;;;;;18.00;100.00;100311.28;4967150;28;20214;-70
2023/09/16 07:17:34;;;;;;;10.50;4.20;;;;;;;18.45;100.00;100317.59;4968894;28;20197;-68
2023/09/16 07:20:01;;;;;;;8.10;4.40;;;;;;;19.04;100.00;100320.84;4967916;28;20206;-69
2023/09/16 07:22:27;;;;;;;5.03;4.23;;;;;;;19.47;100.00;100321.66;4966353;28;20208;-70
2023/09/16 07:24:54;;;;;;;7.17;4.17;;;;;;;19.54;100.00;100320.63;4968667;28;20312;-69
2023/09/16 07:27:21;;;;;;;8.10;4.13;;;;;;;19.53;100.00;100310.78;4967004;28;20288;-68
2023/09/16 07:29:47;;;;;;;5.50;4.10;;;;;;;19.59;100.00;100313.31;4967314;28;20225;-69
2023/09/16 07:32:13;;;;;;;4.80;3.70;;;;;;;19.73;100.00;100313.88;4965510;28;20202;-68
2023/09/16 07:34:40;;;;;;;5.87;4.00;;;;;;;19.81;100.00;100314.56;4968359;28;20221;-68
2023/09/16 07:37:06;;;;;;;5.38;4.20;;;;;;;19.87;100.00;100314.41;4967534;28;20281;-69
2023/09/16 07:39:33;;;;;;;6.72;4.28;;;;;;;19.93;100.00;100322.31;4967077;28;20193;-68
2023/09/16 07:41:59;;;;;;;5.80;4.45;;;;;;;20.02;100.00;100322.09;4966698;28;20209;-68
2023/09/16 07:44:26;;;;;;;6.25;4.43;;;;;;;20.07;100.00;100326.47;4966211;28;20293;-70
2023/09/16 07:46:53;;;;;;;8.48;4.22;;;;;;;20.12;100.00;100325.41;4966456;28;20665;-68
2023/09/16 07:49:19;;;;;;;6.53;4.50;;;;;;;20.19;100.00;100321.63;4964740;28;20201;-68
2023/09/16 07:51:46;;;;;;;6.88;4.55;;;;;;;20.36;100.00;100326.53;4961484;28;20216;-72
2023/09/16 07:54:14;;;;;;;5.88;4.05;;;;;;;20.41;100.00;100331.81;4964300;28;20664;-69
2023/09/16 07:56:40;;;;;;;6.18;4.28;;;;;;;20.35;100.00;100332.84;4979523;28;20248;-70
2023/09/16 07:59:06;;;;;;;5.70;4.70;;;;;;;20.34;100.00;100329.25;4962624;28;20245;-69
2023/09/16 08:01:33;;;;;;;5.85;4.00;;;;;;;20.34;100.00;100333.75;4967591;28;20297;-69
2023/09/16 08:03:59;;;;;;;6.70;4.22;;;;;;;20.33;100.00;100343.63;4968855;28;20198;-69
2023/09/16 08:06:26;;;;;;;5.38;3.83;;;;;;;20.41;100.00;100351.53;4969453;28;20280;-71
2023/09/16 08:08:54;;;;;;;5.55;4.13;;;;;;;20.58;100.00;100348.38;4968212;28;20636;-69
2023/09/16 08:11:20;;;;;;;5.57;4.10;;;;;;;20.73;100.00;100349.75;4968640;28;20285;-70
2023/09/16 08:13:47;;;;;;;6.60;4.18;;;;;;;20.86;100.00;100348.50;4968624;28;20561;-69
2023/09/16 08:16:14;;;;;;;5.47;3.80;;;;;;;21.04;100.00;100342.53;4968764;28;20289;-70
2023/09/16 08:18:40;;;;;;;4.97;3.80;;;;;;;21.12;100.00;100342.31;4968028;28;20469;-69
2023/09/16 08:21:07;;;;;;;5.15;4.05;;;;;;;21.20;100.00;100340.25;4969583;28;20213;-71
2023/09/16 08:23:33;;;;;;;6.43;4.22;;;;;;;21.29;100.00;100347.22;4969207;28;20252;-69
2023/09/16 08:26:00;;;;;;;6.03;4.43;;;;;;;21.35;100.00;100344.31;4967074;28;20682;-69
2023/09/16 08:28:26;;;;;;;5.40;4.00;;;;;;;21.46;100.00;100340.34;4968398;28;20653;-70
2023/09/16 08:30:53;;;;;;;8.00;4.57;;;;;;;21.54;100.00;100351.75;4962722;28;20249;-69
2023/09/16 08:33:19;;;;;;;8.40;4.07;;;;;;;21.64;100.00;100359.59;4968318;28;20221;-69
2023/09/16 08:35:45;;;;;;;6.15;4.13;;;;;;;21.76;100.00;100362.75;4968191;28;20218;-68
2023/09/16 08:38:12;;;;;;;7.63;4.20;;;;;;;21.84;100.00;100363.38;4968912;28;20197;-69
2023/09/16 08:40:38;;;;;;;8.27;4.30;;;;;;;21.91;99.08;100366.75;4966989;28;20209;-69
2023/09/16 08:43:15;;;;;;;8.57;4.80;;;;;;;21.98;99.11;100370.09;4965606;28;20585;-69
2023/09/16 08:45:45;;;;;;;4.55;3.60;;;;;;;22.05;95.01;100369.03;4966450;28;20605;-69
2023/09/16 08:48:21;;;;;;;5.28;4.40;;;;;;;22.06;97.53;100373.47;4967113;28;20256;-71
2023/09/16 08:50:50;;;;;;;5.38;4.20;;;;;;;22.17;98.51;100374.88;4969403;28;20405;-71
2023/09/16 08:53:18;;;;;;;7.78;4.40;;;;;;;22.24;97.14;100378.22;4967428;28;20303;-69
2023/09/16 08:55:45;;;;;;;5.82;4.30;;;;;;;22.38;98.15;100372.34;4952807;28;20316;-67
2023/09/16 08:58:13;;;;;;;6.38;4.63;;;;;;;22.48;98.54;100368.41;4959315;28;20197;-69
2023/09/16 09:00:40;;;;;;;7.55;4.50;;;;;;;22.65;97.28;100375.88;4958875;28;20652;-68
2023/09/16 09:03:07;;;;;;;4.75;4.00;;;;;;;22.78;93.12;100379.88;4958309;28;20689;-68
2023/09/16 09:05:35;;;;;;;5.47;4.28;;;;;;;22.78;91.62;100375.38;4959734;28;20228;-67
2023/09/16 09:08:02;;;;;;;11.70;4.45;;;;;;;22.67;92.89;100371.31;4968139;28;20197;-68
2023/09/16 09:10:29;;;;;;;9.25;5.00;;;;;;;22.73;95.64;100369.25;4973290;28;20205;-69
2023/09/16 09:12:58;;;;;;;4.93;3.97;;;;;;;22.83;94.11;100375.25;4970661;28;20752;-68
2023/09/16 09:15:25;;;;;;;7.28;5.15;;;;;;;22.63;92.62;100375.94;4973727;28;20209;-68
2023/09/16 09:17:56;;;;;;;5.50;4.22;;;;;;;22.67;96.04;100379.41;4973502;28;20193;-69
2023/09/16 09:20:25;;;;;;;6.40;4.15;;;;;;;22.83;96.44;100380.66;4975710;28;20661;-71
2023/09/16 09:22:52;;;;;;;5.18;4.18;;;;;;;22.99;93.82;100384.53;4973602;28;20205;-70
2023/09/16 09:25:22;;;;;;;7.53;4.93;;;;;;;23.16;91.85;100393.81;4974729;28;20359;-71
2023/09/16 09:27:50;;;;;;;6.43;5.05;;;;;;;23.30;93.99;100386.97;4968368;28;20592;-71
2023/09/16 09:30:24;;;;;;;5.20;4.32;;;;;;;23.42;92.61;100386.47;4974460;28;20201;-71
2023/09/16 09:32:50;;;;;;;5.72;4.85;;;;;;;23.46;87.02;100381.81;4974105;28;20300;-71
2023/09/16 09:35:21;;;;;;;5.93;4.28;;;;;;;23.61;87.00;100383.94;4968672;28;20249;-71
2023/09/16 09:37:48;;;;;;;6.30;4.80;;;;;;;23.61;85.10;100383.06;4974403;28;20284;-71
2023/09/16 09:40:15;;;;;;;5.78;4.50;;;;;;;23.73;87.13;100369.94;4973582;28;20193;-71
2023/09/16 09:42:42;;;;;;;6.75;4.75;;;;;;;23.72;85.84;100380.81;4970670;28;20256;-71
2023/09/16 09:45:10;;;;;;;8.52;4.63;;;;;;;23.57;86.20;100371.47;4967657;28;20276;-71
2023/09/16 09:47:37;;;;;;;6.32;4.78;;;;;;;23.65;87.12;100366.66;4971793;28;20197;-71
2023/09/16 09:50:07;;;;;;;6.13;4.68;;;;;;;23.72;88.44;100367.28;4972717;28;20201;-71
2023/09/16 09:52:37;;;;;;;10.63;5.90;;;;;;;23.63;85.80;100367.69;4973070;28;20197;-72
2023/09/16 09:55:03;;;;;;;5.90;4.97;;;;;;;23.59;87.29;100372.28;4974247;28;20244;-72
2023/09/16 09:57:32;;;;;;;7.97;5.55;;;;;;;23.64;87.00;100358.63;4968031;28;20567;-72
2023/09/16 09:59:59;;;;;;;5.07;4.40;;;;;;;23.68;89.34;100358.44;4972575;28;20589;-71
2023/09/16 10:02:26;;;;;;;5.95;4.53;;;;;;;23.93;88.79;100358.28;4969721;28;20201;-71
2023/09/16 10:04:57;;;;;;;5.93;4.35;;;;;;;24.11;86.46;100364.75;4986144;28;20303;-71
2023/09/16 10:07:25;;;;;;;6.32;5.03;;;;;;;24.27;84.36;100364.97;4972459;28;20201;-71
2023/09/16 10:09:53;;;;;;;6.32;5.00;;;;;;;24.41;83.58;100362.53;4973347;28;20233;-71
2023/09/16 10:12:20;;;;;;;5.60;4.65;;;;;;;24.52;81.56;100359.38;4972934;28;20193;-71
2023/09/16 10:14:48;;;;;;;5.78;5.00;;;;;;;24.44;80.61;100348.91;4969100;28;20225;-71
2023/09/16 10:17:18;;;;;;;9.60;5.70;;;;;;;24.55;80.51;100353.84;4972891;28;20692;-71
2023/09/16 10:19:44;;;;;;;9.35;5.90;;;;;;;24.62;82.96;100350.78;4971368;28;20292;-71
2023/09/16 10:22:13;;;;;;;7.72;5.80;;;;;;;24.73;80.17;100346.69;4968246;28;20201;-71
2023/09/16 10:24:43;;;;;;;7.63;5.30;;;;;;;24.83;80.05;100340.81;4968364;28;20723;-71
2023/09/16 10:27:23;;;;;;;7.75;5.18;;;;;;;24.81;78.82;100339.97;4970165;28;20272;-71
2023/09/16 10:29:50;;;;;;;8.10;5.38;;;;;;;24.86;80.52;100343.38;4973192;28;20197;-71
2023/09/16 10:32:17;;;;;;;7.50;5.82;;;;;;;24.77;79.83;100351.91;4965690;28;20216;-71
2023/09/16 10:34:47;;;;;;;7.90;5.72;;;;;;;24.55;81.72;100349.31;4965925;28;20272;-71
2023/09/16 10:37:17;;;;;;;6.60;5.45;;;;;;;24.66;82.56;100346.97;4967707;28;20197;-71
2023/09/16 10:39:46;;;;;;;9.30;5.85;;;;;;;24.80;80.73;100348.16;4968301;28;20284;-72
2023/09/16 10:42:17;;;;;;;8.60;4.97;;;;;;;24.88;82.50;100343.31;4970654;28;20211;-72
2023/09/16 10:44:46;;;;;;;6.25;5.22;;;;;;;25.10;83.43;100344.06;4968167;28;20320;-72
2023/09/16 10:47:16;;;;;;;7.15;5.95;;;;;;;25.21;79.51;100341.72;4968221;28;20564;-71
2023/09/16 10:49:46;;;;;;;7.55;5.97;;;;;;;25.23;77.89;100336.25;4965859;28;20209;-71
2023/09/16 10:52:18;;;;;;;8.65;5.80;;;;;;;25.36;78.04;100332.00;4968662;28;20209;-71
2023/09/16 10:54:55;;;;;;;7.55;5.85;;;;;;;25.53;78.73;100333.88;4973206;28;20223;-72
2023/09/16 10:57:28;;;;;;;9.93;6.25;;;;;;;25.56;74.58;100337.31;4969561;28;20588;-73
2023/09/16 10:59:57;;;;;;;6.30;5.00;;;;;;;25.45;78.53;100328.84;4966030;28;20571;-71
2023/09/16 11:02:32;;;;;;;6.57;5.30;;;;;;;25.64;79.71;100334.25;4967200;28;20560;-72
2023/09/16 11:04:59;;;;;;;5.57;4.68;;;;;;;25.85;78.49;100341.34;4968826;28;20626;-72
2023/09/16 11:07:25;;;;;;;7.72;4.88;;;;;;;26.12;76.68;100332.75;4967193;28;20701;-72
2023/09/16 11:09:54;;;;;;;7.20;5.03;;;;;;;26.27;73.88;100331.94;4969496;28;20548;-71
2023/09/16 11:12:21;;;;;;;6.85;5.00;;;;;;;26.40;72.66;100335.78;4967994;28;20197;-72
2023/09/16 11:14:48;;;;;;;6.47;5.28;;;;;;;26.54;69.97;100338.69;4959566;28;20698;-71
2023/09/16 11:17:15;;;;;;;7.18;5.32;;;;;;;26.61;69.89;100332.91;4967826;28;20576;-72
2023/09/16 11:19:42;;;;;;;8.18;5.68;;;;;;;26.64;67.02;100321.88;4968395;28;20221;-72